NCAR-RAP Real-Time Weather Data

Output produced by METARs form (23 April 2019  08:11 UTC)
found at http://weather.rap.ucar.edu/surface/
 
KGUY 230753Z AUTO 03006KT 10SM -RA OVC035 11/08 A3014 RMK AO2 RAE0656B22 SLP182 P0001 T01110078
KGUY 230653Z AUTO 04007KT 10SM -RA FEW048 BKN075 OVC120 11/08 A3015 RMK AO2 RAB31 SLP186 P0000 T01110078
KGUY 230553Z AUTO 02009KT 10SM FEW070 SCT090 OVC110 12/08 A3013 RMK AO2 RAE11 SLP177 P0000 60005 T01170083 10167 20117 401780089 58004
KGUY 230453Z AUTO 01009KT 10SM -RA OVC075 12/08 A3014 RMK AO2 SLP182 P0002 T01220083
KGUY 230353Z AUTO 01006KT 10SM -RA OVC070 13/09 A3016 RMK AO2 SLP190 P0003 T01280089
KGUY 230253Z AUTO 03008KT 10SM -RA OVC070 14/08 A3014 RMK AO2 RAB29 SLP182 P0000 60000 T01390078 53009
KGUY 230153Z AUTO 03010KT 10SM FEW070 OVC100 16/07 A3012 RMK AO2 SLP174 T01560067
KGUY 230053Z AUTO 07010KT 10SM OVC100 17/06 A3011 RMK AO2 SLP177 T01670061
KGUY 222353Z AUTO 04007KT 10SM OVC090 17/06 A3011 RMK AO2 PK WND 01029/2316 RAB34E39 SLP175 P0000 60000 T01670061 10178 20167 58001
KGUY 222253Z AUTO 04014KT 10SM OVC100 17/06 A3010 RMK AO2 SLP173 T01720056
KGUY 222153Z AUTO 02012KT 10SM BKN110 17/06 A3013 RMK AO2 SLP181 T01720056
KGUY 222053Z AUTO 01016KT 10SM CLR 17/06 A3011 RMK AO2 SLP173 T01720056 58005
KGUY 221953Z AUTO 36016G21KT 10SM CLR 17/06 A3013 RMK AO2 PK WND 35028/1859 SLP179 T01720061
KGUY 221853Z AUTO 01020G28KT 10SM CLR 17/06 A3012 RMK AO2 PK WND 01030/1837 SLP176 T01670056
KGUY 221753Z AUTO 35020G25KT 10SM CLR 18/07 A3013 RMK AO2 PK WND 01026/1710 SLP178 T01780067 10178 20089 50006
KGUY 221653Z AUTO 36018G25KT 10SM CLR 17/07 A3013 RMK AO2 PK WND 36028/1625 SLP177 T01670067
KGUY 221553Z AUTO 36021G28KT 10SM CLR 16/06 A3012 RMK AO2 PK WND 35029/1528 SLP169 T01560061
KGUY 221453Z AUTO 35019G26KT 10SM CLR 14/06 A3011 RMK AO2 PK WND 35026/1452 SLP166 T01440061 51019
KGUY 221353Z AUTO 35019G26KT 10SM FEW022 13/06 A3009 RMK AO2 PK WND 34026/1347 SLP161 T01280061
KGUY 221253Z AUTO 34012KT 10SM CLR 10/07 A3008 RMK AO2 SLP152 T01000067
KGUY 221153Z AUTO 35011KT 10SM CLR 09/06 A3005 RMK AO2 SLP139 T00890061 10122 20089 51024